Time;durP1;ratioP1;P1;durP2;ratioP2;P2;SDS_P1;SDS_P2;PMS_P1;PMS_P2;Temp;Humidity;BMP_temperature;BMP_pressure;BME280_temperature;BME280_humidity;BME280_pressure;Samples;Min_cycle;Max_cycle;Signal;HPM_P1;HPM_P2
2022/07/16 00:08:16;;;;;;;3.8;7.8;;;;;;;13.1;100;98870;;;;
2022/07/16 00:19:16;;;;;;;3.8;7.8;;;;;;;12.6;100;98860;;;;
2022/07/16 00:30:16;;;;;;;3.8;7.8;;;;;;;12.1;100;98840;;;;
2022/07/16 00:40:16;;;;;;;2.8;6.1;;;;;;;11.7;100;98840;;;;
2022/07/16 00:50:16;;;;;;;2.8;6.1;;;;;;;11.5;100;98840;;;;
2022/07/16 01:01:16;;;;;;;2.8;6.1;;;;;;;11.1;100;98830;;;;
2022/07/16 01:11:16;;;;;;;2.3;9.4;;;;;;;11.1;100;98830;;;;
2022/07/16 01:21:16;;;;;;;2.3;9.4;;;;;;;10.8;100;98820;;;;
2022/07/16 01:31:16;;;;;;;2.3;9.4;;;;;;;10.5;100;98820;;;;
2022/07/16 01:41:16;;;;;;;2.6;5.4;;;;;;;10.4;100;98820;;;;
2022/07/16 01:51:16;;;;;;;2.6;5.4;;;;;;;10.2;100;98810;;;;
2022/07/16 02:02:16;;;;;;;2.6;5.4;;;;;;;10.1;100;98800;;;;
2022/07/16 02:12:16;;;;;;;2.8;4.8;;;;;;;10.2;100;98800;;;;
2022/07/16 02:23:16;;;;;;;2.8;4.8;;;;;;;10.2;100;98790;;;;
2022/07/16 02:33:16;;;;;;;2.8;4.8;;;;;;;10.4;100;98800;;;;
2022/07/16 02:44:16;;;;;;;2.2;7;;;;;;;10.6;100;98800;;;;
2022/07/16 02:54:16;;;;;;;2.2;7;;;;;;;10.9;100;98800;;;;
2022/07/16 03:05:16;;;;;;;2.2;7;;;;;;;11;100;98790;;;;
2022/07/16 03:15:16;;;;;;;2.6;5.6;;;;;;;11.1;100;98800;;;;
2022/07/16 03:26:16;;;;;;;2.6;5.6;;;;;;;11.3;100;98800;;;;
2022/07/16 03:37:16;;;;;;;3.2;5.9;;;;;;;11.4;100;98810;;;;
2022/07/16 03:48:16;;;;;;;3.2;5.9;;;;;;;11.6;100;98820;;;;
2022/07/16 03:58:16;;;;;;;3.2;5.9;;;;;;;11.7;100;98820;;;;
2022/07/16 04:09:16;;;;;;;3.2;5.3;;;;;;;11.8;100;98820;;;;
2022/07/16 04:19:16;;;;;;;3.2;5.3;;;;;;;12;100;98830;;;;
2022/07/16 04:30:16;;;;;;;3.2;5.3;;;;;;;12.3;100;98830;;;;
2022/07/16 04:41:16;;;;;;;3.1;6.5;;;;;;;12.4;100;98810;;;;
2022/07/16 04:52:16;;;;;;;3.1;6.5;;;;;;;12.8;100;98820;;;;
2022/07/16 05:03:20;;;;;;;3.1;6.5;;;;;;;13.2;100;98820;;;;
2022/07/16 05:12:16;;;;;;;2.7;6.4;;;;;;;13.5;100;98830;;;;
2022/07/16 05:23:16;;;;;;;2.7;6.4;;;;;;;13.9;100;98820;;;;
2022/07/16 05:34:16;;;;;;;2.7;6.4;;;;;;;14.3;100;98820;;;;
2022/07/16 05:44:16;;;;;;;4.6;10.6;;;;;;;14.5;100;98820;;;;
2022/07/16 05:55:16;;;;;;;4.6;10.6;;;;;;;15.3;100;98820;;;;
2022/07/16 06:06:16;;;;;;;4.6;10.6;;;;;;;16.4;100;98830;;;;
2022/07/16 06:17:16;;;;;;;4;8.6;;;;;;;16.3;100;98820;;;;
2022/07/16 06:28:16;;;;;;;4;8.6;;;;;;;16.3;100;98810;;;;
2022/07/16 06:38:16;;;;;;;3.3;7.4;;;;;;;16.6;100;98820;;;;
2022/07/16 06:49:16;;;;;;;3.3;7.4;;;;;;;17.2;100;98830;;;;
2022/07/16 06:59:16;;;;;;;3.3;7.4;;;;;;;17.8;100;98820;;;;
2022/07/16 07:09:16;;;;;;;3.6;8.6;;;;;;;18.7;100;98810;;;;
2022/07/16 07:20:16;;;;;;;3.6;8.6;;;;;;;19.4;100;98810;;;;
2022/07/16 07:30:16;;;;;;;3.6;8.6;;;;;;;20;100;98810;;;;
2022/07/16 07:41:16;;;;;;;2.7;7.6;;;;;;;20.4;98.3;98810;;;;
2022/07/16 07:51:16;;;;;;;2.7;7.6;;;;;;;19.7;95.8;98800;;;;
2022/07/16 08:01:16;;;;;;;2.7;7.6;;;;;;;19.4;98.9;98800;;;;
2022/07/16 08:11:16;;;;;;;1.6;4.7;;;;;;;19.6;96.9;98790;;;;
2022/07/16 08:22:16;;;;;;;1.6;4.7;;;;;;;19.9;97.3;98790;;;;
2022/07/16 08:32:16;;;;;;;1.6;4.7;;;;;;;20.7;95.4;98780;;;;
2022/07/16 08:42:16;;;;;;;2.7;5.7;;;;;;;21;90.4;98770;;;;
2022/07/16 08:52:16;;;;;;;2.7;5.7;;;;;;;20.8;91;98770;;;;
2022/07/16 09:03:16;;;;;;;2.7;5.7;;;;;;;20.7;83.8;98770;;;;
2022/07/16 09:13:16;;;;;;;1.8;3.6;;;;;;;21;85.1;98760;;;;
2022/07/16 09:24:16;;;;;;;1.8;3.6;;;;;;;21.1;86.4;98750;;;;
2022/07/16 09:34:16;;;;;;;1.8;3.6;;;;;;;20.9;82.3;98740;;;;
2022/07/16 09:45:16;;;;;;;1.8;4.8;;;;;;;20.8;81.3;98750;;;;
2022/07/16 09:55:16;;;;;;;1.8;4.8;;;;;;;21.1;82;98750;;;;
2022/07/16 10:06:16;;;;;;;1.8;4.8;;;;;;;21.6;74.9;98750;;;;
2022/07/16 10:16:16;;;;;;;1.6;4.5;;;;;;;21.7;76.5;98730;;;;
2022/07/16 10:26:16;;;;;;;1.6;4.5;;;;;;;21.7;74.4;98730;;;;
2022/07/16 10:37:16;;;;;;;2.2;5.1;;;;;;;21.1;73;98720;;;;
2022/07/16 10:48:16;;;;;;;2.2;5.1;;;;;;;22.1;69.8;98710;;;;
2022/07/16 10:59:16;;;;;;;2.2;5.1;;;;;;;22.2;69.3;98700;;;;
2022/07/16 11:10:17;;;;;;;2;8.7;;;;;;;22.6;72.1;98700;;;;
2022/07/16 11:20:16;;;;;;;2;8.7;;;;;;;22.7;70.5;98690;;;;
2022/07/16 11:30:16;;;;;;;2;8.7;;;;;;;22.9;68.6;98700;;;;
2022/07/16 11:41:16;;;;;;;1.9;4.8;;;;;;;22.2;69;98700;;;;
2022/07/16 11:51:16;;;;;;;1.9;4.8;;;;;;;22.6;70.9;98700;;;;
2022/07/16 12:01:16;;;;;;;1.9;4.8;;;;;;;21.9;70.8;98700;;;;
2022/07/16 12:11:16;;;;;;;1.8;4.3;;;;;;;22;76;98700;;;;
2022/07/16 12:21:16;;;;;;;1.8;4.3;;;;;;;22;73.1;98700;;;;
2022/07/16 12:32:16;;;;;;;1.8;4.3;;;;;;;21.8;73.5;98700;;;;
2022/07/16 12:42:16;;;;;;;2.3;4.8;;;;;;;21.4;76.6;98700;;;;
2022/07/16 12:53:16;;;;;;;2.3;4.8;;;;;;;21.7;77.3;98700;;;;
2022/07/16 13:03:16;;;;;;;2.3;4.8;;;;;;;22;79.5;98680;;;;
2022/07/16 13:14:16;;;;;;;1.9;5.6;;;;;;;21.9;78.9;98680;;;;
2022/07/16 13:24:16;;;;;;;1.9;5.6;;;;;;;22.1;78.2;98680;;;;
2022/07/16 13:35:16;;;;;;;1.9;5.6;;;;;;;22.4;77.1;98670;;;;
2022/07/16 13:45:16;;;;;;;1.8;5.4;;;;;;;23.1;75.6;98650;;;;
2022/07/16 13:56:16;;;;;;;1.8;5.4;;;;;;;23.8;73.4;98650;;;;
2022/07/16 14:06:17;;;;;;;1.8;5.4;;;;;;;23.5;74.8;98650;;;;
2022/07/16 14:17:16;;;;;;;2.4;5.9;;;;;;;23.4;74;98650;;;;
2022/07/16 14:28:16;;;;;;;2.4;5.9;;;;;;;24.7;72.5;98640;;;;
2022/07/16 14:38:16;;;;;;;1.7;3.7;;;;;;;24.7;70.1;98640;;;;
2022/07/16 14:49:16;;;;;;;1.7;3.7;;;;;;;24.2;67.2;98630;;;;
2022/07/16 14:59:16;;;;;;;1.7;3.7;;;;;;;23.1;68.1;98630;;;;
2022/07/16 15:10:16;;;;;;;2.3;5;;;;;;;22.4;69.4;98630;;;;
2022/07/16 15:21:16;;;;;;;2.3;5;;;;;;;22.8;70.4;98630;;;;
2022/07/16 15:32:16;;;;;;;2.3;5;;;;;;;22;71.9;98640;;;;
2022/07/16 15:43:18;;;;;;;1.8;5.8;;;;;;;21.4;81.4;98640;;;;
2022/07/16 15:53:16;;;;;;;1.8;5.8;;;;;;;22.9;78.6;98650;;;;
2022/07/16 16:04:16;;;;;;;1.8;5.8;;;;;;;21.8;79.8;98660;;;;
2022/07/16 16:14:16;;;;;;;9.9;18.9;;;;;;;21.5;78.2;98690;;;;
2022/07/16 16:25:16;;;;;;;9.9;18.9;;;;;;;20.4;87.4;98730;;;;
2022/07/16 16:36:17;;;;;;;9.9;18.9;;;;;;;18.9;99.7;98780;;;;
2022/07/16 16:46:16;;;;;;;1.3;4.8;;;;;;;18.3;100;98800;;;;
2022/07/16 16:56:17;;;;;;;1.3;4.8;;;;;;;17.6;100;98820;;;;
2022/07/16 17:07:16;;;;;;;1.6;4.2;;;;;;;17.3;100;98850;;;;
2022/07/16 17:18:16;;;;;;;1.6;4.2;;;;;;;16.9;100;98860;;;;
2022/07/16 17:29:16;;;;;;;1.6;4.2;;;;;;;16.2;100;98890;;;;
2022/07/16 17:40:16;;;;;;;1.3;3.5;;;;;;;15.8;100;98900;;;;
2022/07/16 17:51:16;;;;;;;1.3;3.5;;;;;;;15;100;98890;;;;
2022/07/16 18:02:16;;;;;;;1.3;3.5;;;;;;;14.8;100;98920;;;;
2022/07/16 18:13:16;;;;;;;1.5;4.2;;;;;;;14.9;100;98930;;;;
2022/07/16 18:23:16;;;;;;;1.5;4.2;;;;;;;14.9;100;98940;;;;
2022/07/16 18:33:16;;;;;;;1.5;4.2;;;;;;;14.8;100;98950;;;;
2022/07/16 18:43:16;;;;;;;2.7;6.1;;;;;;;14.7;100;98930;;;;
2022/07/16 18:54:16;;;;;;;2.7;6.1;;;;;;;14.4;100;98940;;;;
2022/07/16 19:04:16;;;;;;;2.7;6.1;;;;;;;14.3;100;98960;;;;
2022/07/16 19:14:16;;;;;;;2.4;5.1;;;;;;;14.3;100;98990;;;;
2022/07/16 19:25:16;;;;;;;2.4;5.1;;;;;;;14.4;100;99020;;;;
2022/07/16 19:35:16;;;;;;;2.4;5.1;;;;;;;14.4;100;99050;;;;
2022/07/16 19:46:16;;;;;;;2.9;6.7;;;;;;;14.2;100;99040;;;;
2022/07/16 19:58:20;;;;;;;2.9;6.7;;;;;;;14.3;100;99040;;;;
2022/07/16 20:07:16;;;;;;;2.8;7.4;;;;;;;14.2;100;99040;;;;
2022/07/16 20:18:16;;;;;;;2.8;7.4;;;;;;;13.9;100;99040;;;;
2022/07/16 20:28:16;;;;;;;2.8;7.4;;;;;;;13.9;100;99050;;;;
2022/07/16 20:39:16;;;;;;;2.3;4.6;;;;;;;13.7;100;99060;;;;
2022/07/16 20:50:16;;;;;;;2.3;4.6;;;;;;;13.5;100;99080;;;;
2022/07/16 21:00:16;;;;;;;2.3;4.6;;;;;;;13.7;100;99080;;;;
2022/07/16 21:10:16;;;;;;;1.8;3.7;;;;;;;13.6;100;99090;;;;
2022/07/16 21:20:16;;;;;;;1.8;3.7;;;;;;;13.4;100;99100;;;;
2022/07/16 21:30:16;;;;;;;1.8;3.7;;;;;;;13.4;100;99100;;;;
2022/07/16 21:40:16;;;;;;;1.9;5.8;;;;;;;13;100;99100;;;;
2022/07/16 21:51:16;;;;;;;1.9;5.8;;;;;;;12.7;100;99130;;;;
2022/07/16 22:01:16;;;;;;;1.9;5.8;;;;;;;12.6;100;99140;;;;
2022/07/16 22:11:16;;;;;;;1.8;3.5;;;;;;;12.3;100;99160;;;;
2022/07/16 22:21:16;;;;;;;1.8;3.5;;;;;;;12;100;99160;;;;
2022/07/16 22:32:16;;;;;;;1.8;3.5;;;;;;;11.8;100;99160;;;;
2022/07/16 22:43:16;;;;;;;1.9;4.3;;;;;;;11.7;100;99170;;;;
2022/07/16 22:53:17;;;;;;;1.9;4.3;;;;;;;11.5;100;99190;;;;
2022/07/16 23:03:16;;;;;;;1.9;4.3;;;;;;;11.3;100;99190;;;;
2022/07/16 23:14:16;;;;;;;3.2;5;;;;;;;11.1;100;99200;;;;
2022/07/16 23:24:16;;;;;;;3.2;5;;;;;;;11.1;100;99200;;;;
2022/07/16 23:35:17;;;;;;;3.2;5;;;;;;;11;100;99200;;;;
2022/07/16 23:46:16;;;;;;;3.2;7.9;;;;;;;11;100;99190;;;;
2022/07/16 23:56:16;;;;;;;3.2;7.9;;;;;;;11;100;99200;;;;
